Time;durP1;ratioP1;P1;durP2;ratioP2;P2;SDS_P1;SDS_P2;PMS_P1;PMS_P2;Temp;Humidity;BMP_temperature;BMP_pressure;BME280_temperature;BME280_humidity;BME280_pressure;Samples;Min_cycle;Max_cycle;Signal;HPM_P1;HPM_P2
2022/03/12 00:01:14;;;;;;;17.42;12.43;;;;;;;;;;5015209;28;20354;-75
2022/03/12 00:03:41;;;;;;;20.50;13.18;;;;;;;;;;5014234;28;20463;-75
2022/03/12 00:06:09;;;;;;;16.55;11.35;;;;;;;;;;5014225;28;20380;-75
2022/03/12 00:08:43;;;;;;;13.77;10.68;;;;;;;;;;5014212;28;20228;-75
2022/03/12 00:11:11;;;;;;;16.52;11.27;;;;;;;;;;5014667;28;20040;-74
2022/03/12 00:13:38;;;;;;;20.33;13.25;;;;;;;;;;5013788;28;20034;-75
2022/03/12 00:16:07;;;;;;;15.77;9.60;;;;;;;;;;5013997;28;20025;-75
2022/03/12 00:18:36;;;;;;;14.82;9.70;;;;;;;;;;5013619;28;20049;-75
2022/03/12 00:21:04;;;;;;;15.55;10.10;;;;;;;;;;5014154;28;20420;-75
2022/03/12 00:23:30;;;;;;;13.48;9.70;;;;;;;;;;5018259;28;20556;-75
2022/03/12 00:26:00;;;;;;;13.73;9.98;;;;;;;;;;5034168;28;20038;-75
2022/03/12 00:28:26;;;;;;;18.77;10.80;;;;;;;;;;5033622;28;20032;-74
2022/03/12 00:30:53;;;;;;;17.65;11.15;;;;;;;;;;5033744;28;20022;-74
2022/03/12 00:33:20;;;;;;;18.52;12.07;;;;;;;;;;5033619;28;20075;-74
2022/03/12 00:35:50;;;;;;;22.13;14.00;;;;;;;;;;5034272;28;20049;-75
2022/03/12 00:38:17;;;;;;;24.38;13.98;;;;;;;;;;5033635;28;20448;-74
2022/03/12 00:40:44;;;;;;;19.27;13.00;;;;;;;;;;5033478;28;20025;-74
2022/03/12 00:43:11;;;;;;;29.73;15.45;;;;;;;;;;5033968;28;20050;-75
2022/03/12 00:45:40;;;;;;;28.90;16.52;;;;;;;;;;5034235;28;20029;-74
2022/03/12 00:48:06;;;;;;;28.75;14.40;;;;;;;;;;5033718;28;20026;-74
2022/03/12 00:50:33;;;;;;;22.55;13.18;;;;;;;;;;5033478;28;20025;-74
2022/03/12 00:52:59;;;;;;;25.00;13.07;;;;;;;;;;5034089;28;20095;-75
2022/03/12 00:55:26;;;;;;;23.10;13.93;;;;;;;;;;5033071;28;20073;-75
2022/03/12 00:57:52;;;;;;;23.67;13.05;;;;;;;;;;5032986;28;20039;-75
2022/03/12 01:00:20;;;;;;;23.20;14.18;;;;;;;;;;5031699;28;20028;-75
2022/03/12 01:02:47;;;;;;;20.88;12.75;;;;;;;;;;5029591;28;20021;-75
2022/03/12 01:05:15;;;;;;;23.35;13.45;;;;;;;;;;5029629;28;20380;-75
2022/03/12 01:07:42;;;;;;;27.50;15.43;;;;;;;;;;5033524;28;20468;-75
2022/03/12 01:10:08;;;;;;;24.35;15.40;;;;;;;;;;5033109;28;20041;-75
2022/03/12 01:12:35;;;;;;;28.88;16.40;;;;;;;;;;5033519;28;20032;-75
2022/03/12 01:15:01;;;;;;;31.20;17.50;;;;;;;;;;5033409;28;20036;-75
2022/03/12 01:17:28;;;;;;;36.00;20.08;;;;;;;;;;5031944;28;20033;-75
2022/03/12 01:19:54;;;;;;;29.02;16.17;;;;;;;;;;5032273;28;20349;-75
2022/03/12 01:22:20;;;;;;;25.95;16.67;;;;;;;;;;5032194;28;20120;-75
2022/03/12 01:24:47;;;;;;;25.33;16.65;;;;;;;;;;5024653;28;20033;-75
2022/03/12 01:27:15;;;;;;;30.23;19.52;;;;;;;;;;5018085;28;20021;-75
2022/03/12 01:29:45;;;;;;;40.15;22.80;;;;;;;;;;5028497;28;20030;-75
2022/03/12 01:32:11;;;;;;;39.30;21.67;;;;;;;;;;5027004;28;20033;-75
2022/03/12 01:34:38;;;;;;;34.75;22.70;;;;;;;;;;5024452;28;20095;-75
2022/03/12 01:37:04;;;;;;;39.83;22.35;;;;;;;;;;5019514;28;20112;-75
2022/03/12 01:39:30;;;;;;;37.80;22.67;;;;;;;;;;5027823;28;20025;-75
2022/03/12 01:41:57;;;;;;;43.08;23.13;;;;;;;;;;5027974;28;20566;-75
2022/03/12 01:44:23;;;;;;;44.53;25.48;;;;;;;;;;5028804;28;20013;-76
2022/03/12 01:46:50;;;;;;;47.67;27.92;;;;;;;;;;5014613;28;20029;-76
2022/03/12 01:49:18;;;;;;;46.58;27.88;;;;;;;;;;5032437;28;20031;-75
2022/03/12 01:51:45;;;;;;;43.58;27.35;;;;;;;;;;5030888;28;20026;-75
2022/03/12 01:54:12;;;;;;;39.03;27.33;;;;;;;;;;5031141;28;20039;-75
2022/03/12 01:56:38;;;;;;;41.97;29.40;;;;;;;;;;5027880;28;20052;-75
2022/03/12 01:59:06;;;;;;;36.20;27.63;;;;;;;;;;5022988;28;20456;-76
2022/03/12 02:01:32;;;;;;;36.67;27.23;;;;;;;;;;5026832;28;20452;-76
2022/03/12 02:04:00;;;;;;;40.28;27.35;;;;;;;;;;5032462;28;20030;-76
2022/03/12 02:06:27;;;;;;;37.28;24.88;;;;;;;;;;5033091;28;20052;-76
2022/03/12 02:08:58;;;;;;;35.38;25.08;;;;;;;;;;5036881;28;20487;-76
2022/03/12 02:11:29;;;;;;;28.13;17.67;;;;;;;;;;5036536;28;20021;-76
2022/03/12 02:14:03;;;;;;;21.33;15.95;;;;;;;;;;5042095;28;20053;-76
2022/03/12 02:16:30;;;;;;;27.88;17.13;;;;;;;;;;5031469;28;20108;-76
2022/03/12 02:18:56;;;;;;;31.85;20.02;;;;;;;;;;5046115;28;20108;-76
2022/03/12 02:21:38;;;;;;;34.60;20.70;;;;;;;;;;5057015;28;20040;-76
2022/03/12 02:24:06;;;;;;;31.38;23.63;;;;;;;;;;5038404;28;20107;-76
2022/03/12 02:26:33;;;;;;;36.42;23.58;;;;;;;;;;5036296;28;20064;-76
2022/03/12 02:28:59;;;;;;;38.95;28.13;;;;;;;;;;5036560;28;20025;-77
2022/03/12 02:31:26;;;;;;;47.35;35.17;;;;;;;;;;5034071;28;20036;-76
2022/03/12 02:33:53;;;;;;;50.30;38.17;;;;;;;;;;5036359;28;20022;-76
2022/03/12 02:36:24;;;;;;;45.85;32.40;;;;;;;;;;5036527;28;20387;-77
2022/03/12 02:38:50;;;;;;;40.25;29.20;;;;;;;;;;5035728;28;20029;-77
2022/03/12 02:41:20;;;;;;;44.50;30.27;;;;;;;;;;5036028;28;20100;-77
2022/03/12 02:43:47;;;;;;;35.85;26.05;;;;;;;;;;5036625;28;20024;-77
2022/03/12 02:46:14;;;;;;;34.25;22.90;;;;;;;;;;5035387;28;20032;-77
2022/03/12 02:48:40;;;;;;;35.13;26.27;;;;;;;;;;5036089;28;20029;-77
2022/03/12 02:51:07;;;;;;;37.38;28.05;;;;;;;;;;5035807;28;20029;-76
2022/03/12 02:53:34;;;;;;;39.88;27.20;;;;;;;;;;5034224;28;20026;-77
2022/03/12 02:56:00;;;;;;;39.33;24.20;;;;;;;;;;5029335;28;20349;-76
2022/03/12 02:58:27;;;;;;;32.78;23.00;;;;;;;;;;5035451;28;20032;-77
2022/03/12 03:00:53;;;;;;;34.95;24.15;;;;;;;;;;5035880;28;20056;-76
2022/03/12 03:03:20;;;;;;;28.20;21.35;;;;;;;;;;5033015;28;20026;-77
2022/03/12 03:05:48;;;;;;;29.08;21.70;;;;;;;;;;5034962;28;20459;-77
2022/03/12 03:08:22;;;;;;;27.98;16.98;;;;;;;;;;5035247;28;20033;-76
2022/03/12 03:10:49;;;;;;;31.25;22.13;;;;;;;;;;5031108;28;20026;-76
2022/03/12 03:13:16;;;;;;;28.45;20.08;;;;;;;;;;5024208;28;20017;-76
2022/03/12 03:15:50;;;;;;;30.80;20.67;;;;;;;;;;5033899;28;20113;-76
2022/03/12 03:18:24;;;;;;;28.63;18.42;;;;;;;;;;5034393;28;20033;-76
2022/03/12 03:20:52;;;;;;;28.00;18.60;;;;;;;;;;5035275;28;20064;-75
2022/03/12 03:23:20;;;;;;;28.92;19.48;;;;;;;;;;5035214;28;20028;-75
2022/03/12 03:25:46;;;;;;;30.75;21.25;;;;;;;;;;5030865;28;20367;-75
2022/03/12 03:28:13;;;;;;;33.53;22.27;;;;;;;;;;5025879;28;20051;-75
2022/03/12 03:30:40;;;;;;;33.72;19.92;;;;;;;;;;5035333;28;20088;-75
2022/03/12 03:33:10;;;;;;;35.53;22.10;;;;;;;;;;5034297;28;20471;-75
2022/03/12 03:35:40;;;;;;;38.22;23.50;;;;;;;;;;5034940;28;20087;-76
2022/03/12 03:38:06;;;;;;;39.20;22.17;;;;;;;;;;5034629;28;20025;-75
2022/03/12 03:40:33;;;;;;;39.45;23.15;;;;;;;;;;5035109;28;20099;-75
2022/03/12 03:42:59;;;;;;;42.58;25.05;;;;;;;;;;5033894;28;20092;-75
2022/03/12 03:45:27;;;;;;;59.55;29.80;;;;;;;;;;5034522;28;20498;-75
2022/03/12 03:47:55;;;;;;;59.80;33.03;;;;;;;;;;5034773;28;20029;-75
2022/03/12 03:50:25;;;;;;;61.33;34.28;;;;;;;;;;5034088;28;20029;-75
2022/03/12 03:52:51;;;;;;;67.13;33.80;;;;;;;;;;5034599;28;20067;-75
2022/03/12 03:55:17;;;;;;;66.78;34.85;;;;;;;;;;5034786;28;20380;-75
2022/03/12 03:57:44;;;;;;;62.88;34.47;;;;;;;;;;5033632;28;20021;-74
2022/03/12 04:00:12;;;;;;;67.50;41.58;;;;;;;;;;5031718;28;20459;-74
2022/03/12 04:02:39;;;;;;;54.78;29.55;;;;;;;;;;5035037;28;20021;-75
2022/03/12 04:05:06;;;;;;;31.48;21.60;;;;;;;;;;5031646;28;20033;-77
2022/03/12 04:07:32;;;;;;;33.00;20.80;;;;;;;;;;5027769;28;20034;-75
2022/03/12 04:09:58;;;;;;;30.05;19.42;;;;;;;;;;5014373;28;20025;-76
2022/03/12 04:12:25;;;;;;;31.73;18.42;;;;;;;;;;5034970;28;20017;-75
2022/03/12 04:14:52;;;;;;;33.08;18.60;;;;;;;;;;5034041;28;20497;-75
2022/03/12 04:17:18;;;;;;;27.92;17.73;;;;;;;;;;5022916;28;20057;-75
2022/03/12 04:19:46;;;;;;;28.95;18.00;;;;;;;;;;5029126;28;20032;-77
2022/03/12 04:22:12;;;;;;;38.00;23.08;;;;;;;;;;5031477;28;20025;-79
2022/03/12 04:24:38;;;;;;;36.33;22.80;;;;;;;;;;5030511;28;20042;-75
2022/03/12 04:27:05;;;;;;;33.05;22.08;;;;;;;;;;5033256;28;20029;-76
2022/03/12 04:29:31;;;;;;;27.48;18.52;;;;;;;;;;5018405;28;20030;-76
2022/03/12 04:31:57;;;;;;;28.58;18.10;;;;;;;;;;5029244;28;20029;-75
2022/03/12 04:34:24;;;;;;;32.30;20.27;;;;;;;;;;5029646;28;20522;-76
2022/03/12 04:36:50;;;;;;;24.83;18.63;;;;;;;;;;5031952;28;20033;-75
2022/03/12 04:39:16;;;;;;;25.05;18.50;;;;;;;;;;5030807;28;20029;-76
2022/03/12 04:41:42;;;;;;;22.35;15.80;;;;;;;;;;5031881;28;20032;-76
2022/03/12 04:44:09;;;;;;;26.85;17.08;;;;;;;;;;5030008;28;21902;-78
2022/03/12 04:46:36;;;;;;;25.98;15.27;;;;;;;;;;5031525;28;20036;-77
2022/03/12 04:49:04;;;;;;;26.90;16.00;;;;;;;;;;5018866;28;20025;-76
2022/03/12 04:51:31;;;;;;;21.80;14.52;;;;;;;;;;5032878;28;20071;-78
2022/03/12 04:54:00;;;;;;;20.33;14.90;;;;;;;;;;5032683;28;20025;-76
2022/03/12 04:56:27;;;;;;;26.23;15.80;;;;;;;;;;5027110;28;20022;-77
2022/03/12 04:58:55;;;;;;;24.98;15.20;;;;;;;;;;5031564;28;20030;-76
2022/03/12 05:01:22;;;;;;;23.23;14.43;;;;;;;;;;5031364;28;20025;-75
2022/03/12 05:03:48;;;;;;;15.85;11.93;;;;;;;;;;5031326;28;20022;-75
2022/03/12 05:06:15;;;;;;;15.50;9.57;;;;;;;;;;5032953;28;20026;-76
2022/03/12 05:08:42;;;;;;;17.63;10.35;;;;;;;;;;5034578;28;20024;-76
2022/03/12 05:11:08;;;;;;;14.82;9.88;;;;;;;;;;5033184;28;20029;-76
2022/03/12 05:13:35;;;;;;;18.27;11.40;;;;;;;;;;5028324;28;20025;-77
2022/03/12 05:16:04;;;;;;;19.33;11.38;;;;;;;;;;5023256;28;20029;-77
2022/03/12 05:18:31;;;;;;;18.95;11.70;;;;;;;;;;5011937;28;20475;-77
2022/03/12 05:20:58;;;;;;;21.30;13.52;;;;;;;;;;5013643;28;20030;-76
2022/03/12 05:23:24;;;;;;;21.27;13.85;;;;;;;;;;5019598;28;20054;-77
2022/03/12 05:25:52;;;;;;;22.90;14.23;;;;;;;;;;5025773;28;20021;-76
2022/03/12 05:28:23;;;;;;;22.13;13.35;;;;;;;;;;5026734;28;20418;-76
2022/03/12 05:30:56;;;;;;;23.67;14.38;;;;;;;;;;5021627;28;20030;-79
2022/03/12 05:33:23;;;;;;;21.58;13.80;;;;;;;;;;5007957;28;20568;-76
2022/03/12 05:35:53;;;;;;;18.80;13.45;;;;;;;;;;5025873;28;20447;-76
2022/03/12 05:38:20;;;;;;;21.13;13.25;;;;;;;;;;5031255;28;20022;-76
2022/03/12 05:40:48;;;;;;;19.17;11.65;;;;;;;;;;5030535;28;20025;-75
2022/03/12 05:43:15;;;;;;;16.45;8.85;;;;;;;;;;5029155;28;20052;-75
2022/03/12 05:45:45;;;;;;;13.30;8.40;;;;;;;;;;5030150;28;20025;-76
2022/03/12 05:48:15;;;;;;;16.10;9.25;;;;;;;;;;5033925;28;20446;-76
2022/03/12 05:50:42;;;;;;;15.75;11.18;;;;;;;;;;5029233;28;20036;-74
2022/03/12 05:53:09;;;;;;;18.38;11.93;;;;;;;;;;5028815;28;20033;-76
2022/03/12 05:55:38;;;;;;;15.73;10.50;;;;;;;;;;5012397;28;20112;-76
2022/03/12 05:58:05;;;;;;;18.15;10.93;;;;;;;;;;5009650;28;20033;-76
2022/03/12 06:00:32;;;;;;;16.48;10.43;;;;;;;;;;5025139;28;20025;-76
2022/03/12 06:02:59;;;;;;;13.27;7.97;;;;;;;;;;5017562;28;20029;-76
2022/03/12 06:05:26;;;;;;;12.18;7.00;;;;;;;;;;5025039;28;20446;-77
2022/03/12 06:07:53;;;;;;;13.38;8.98;;;;;;;;;;5026653;28;20104;-75
2022/03/12 06:10:21;;;;;;;11.68;8.55;;;;;;;;;;5019980;28;20362;-75
2022/03/12 06:12:51;;;;;;;11.82;7.80;;;;;;;;;;5028344;28;20214;-76
2022/03/12 06:15:18;;;;;;;12.57;7.85;;;;;;;;;;5012331;28;20040;-76
2022/03/12 06:17:45;;;;;;;11.75;7.03;;;;;;;;;;5030207;28;20084;-76
2022/03/12 06:20:12;;;;;;;8.43;5.25;;;;;;;;;;5026622;28;20075;-77
2022/03/12 06:22:39;;;;;;;8.15;5.60;;;;;;;;;;5024791;28;20061;-74
2022/03/12 06:25:07;;;;;;;9.57;5.80;;;;;;;;;;5022237;28;20494;-74
2022/03/12 06:27:34;;;;;;;9.35;4.72;;;;;;;;;;5024682;28;20061;-76
2022/03/12 06:30:02;;;;;;;7.10;4.70;;;;;;;;;;5024943;28;20472;-75
2022/03/12 06:32:48;;;;;;;7.05;4.78;;;;;;;;;;5028654;28;20059;-77
2022/03/12 06:35:16;;;;;;;13.65;6.97;;;;;;;;;;5020929;28;20336;-75
2022/03/12 06:37:42;;;;;;;14.43;6.78;;;;;;;;;;5028563;28;20450;-75
2022/03/12 06:40:10;;;;;;;9.10;5.70;;;;;;;;;;5023295;28;20045;-75
2022/03/12 06:42:38;;;;;;;12.38;6.65;;;;;;;;;;5028399;28;20022;-75
2022/03/12 06:45:04;;;;;;;11.52;6.70;;;;;;;;;;5025734;28;20037;-76
2022/03/12 06:47:32;;;;;;;9.60;5.25;;;;;;;;;;5026631;28;20052;-76
2022/03/12 06:49:59;;;;;;;10.00;6.60;;;;;;;;;;5023304;28;20030;-76
2022/03/12 06:52:26;;;;;;;13.77;6.97;;;;;;;;;;5025061;28;20510;-76
2022/03/12 06:54:52;;;;;;;13.50;6.35;;;;;;;;;;5032140;28;20048;-76
2022/03/12 06:57:19;;;;;;;10.45;6.82;;;;;;;;;;5025679;28;20087;-75
2022/03/12 06:59:45;;;;;;;10.55;6.55;;;;;;;;;;5028870;28;20156;-75
2022/03/12 07:02:12;;;;;;;11.32;6.50;;;;;;;;;;5030082;28;20060;-76
2022/03/12 07:04:38;;;;;;;12.57;5.82;;;;;;;;;;5032209;28;20440;-75
2022/03/12 07:07:05;;;;;;;10.20;6.55;;;;;;;;;;5033022;28;20028;-74
2022/03/12 07:09:31;;;;;;;14.57;7.40;;;;;;;;;;5032585;28;20705;-76
2022/03/12 07:11:58;;;;;;;16.27;6.95;;;;;;;;;;5031611;28;20034;-75
2022/03/12 07:14:27;;;;;;;10.82;6.82;;;;;;;;;;5030149;28;20047;-75
2022/03/12 07:16:54;;;;;;;12.52;7.25;;;;;;;;;;5032158;28;20044;-75
2022/03/12 07:19:21;;;;;;;12.43;6.60;;;;;;;;;;5029300;28;20033;-75
2022/03/12 07:21:49;;;;;;;10.60;6.90;;;;;;;;;;5031589;28;20079;-75
2022/03/12 07:24:16;;;;;;;12.45;8.20;;;;;;;;;;5026968;28;20068;-75
2022/03/12 07:26:43;;;;;;;14.48;7.53;;;;;;;;;;5022941;28;20120;-75
2022/03/12 07:29:10;;;;;;;11.20;8.45;;;;;;;;;;5031003;28;20029;-75
2022/03/12 07:31:39;;;;;;;13.68;9.07;;;;;;;;;;5032394;28;20548;-75
2022/03/12 07:34:05;;;;;;;13.18;9.10;;;;;;;;;;5038246;28;20052;-75
2022/03/12 07:36:32;;;;;;;13.63;8.30;;;;;;;;;;5032294;28;20471;-75
2022/03/12 07:39:03;;;;;;;15.35;9.55;;;;;;;;;;5033840;28;20056;-75
2022/03/12 07:41:29;;;;;;;16.45;10.13;;;;;;;;;;5034031;28;20491;-76
2022/03/12 07:43:56;;;;;;;17.35;9.43;;;;;;;;;;5033144;28;20075;-76
2022/03/12 07:46:22;;;;;;;30.30;12.32;;;;;;;;;;5032391;28;20033;-75
2022/03/12 07:48:49;;;;;;;19.13;9.70;;;;;;;;;;5031923;28;20537;-76
2022/03/12 07:51:16;;;;;;;22.65;12.35;;;;;;;;;;5029362;28;20030;-76
2022/03/12 07:53:42;;;;;;;20.10;12.07;;;;;;;;;;5029005;28;20395;-76
2022/03/12 07:56:09;;;;;;;22.30;13.10;;;;;;;;;;5028016;28;20463;-77
2022/03/12 07:58:36;;;;;;;19.05;12.85;;;;;;;;;;5030386;28;20456;-75
2022/03/12 08:01:03;;;;;;;16.95;13.30;;;;;;;;;;5013455;28;20025;-75
2022/03/12 08:03:29;;;;;;;18.80;11.57;;;;;;;;;;5031559;28;20067;-76
2022/03/12 08:05:56;;;;;;;17.80;11.48;;;;;;;;;;5031199;28;20032;-75
2022/03/12 08:08:22;;;;;;;21.15;13.95;;;;;;;;;;5032149;28;20029;-75
2022/03/12 08:13:37;;;;;;;20.52;13.35;;;;;;;;;;5025686;28;20076;-75
2022/03/12 08:16:04;;;;;;;22.08;13.10;;;;;;;;;;5028881;28;20152;-76
2022/03/12 08:18:30;;;;;;;17.85;11.07;;;;;;;;;;5029037;28;20040;-74
2022/03/12 08:20:57;;;;;;;22.67;13.45;;;;;;;;;;5025710;28;20388;-77
2022/03/12 08:23:23;;;;;;;31.90;17.52;;;;;;;;;;5026725;28;20034;-76
2022/03/12 08:25:52;;;;;;;36.08;17.73;;;;;;;;;;5027177;28;20060;-76
2022/03/12 08:28:22;;;;;;;29.15;16.83;;;;;;;;;;5023877;28;20038;-76
2022/03/12 08:30:48;;;;;;;17.38;11.60;;;;;;;;;;5028108;28;20025;-75
2022/03/12 08:33:17;;;;;;;13.73;10.52;;;;;;;;;;5028600;28;20426;-76
2022/03/12 08:35:43;;;;;;;19.30;10.77;;;;;;;;;;5023799;28;20025;-76
2022/03/12 08:38:09;;;;;;;19.02;11.48;;;;;;;;;;5027183;28;20034;-76
2022/03/12 08:40:36;;;;;;;16.45;10.73;;;;;;;;;;5022603;28;20062;-77
2022/03/12 08:43:03;;;;;;;22.05;13.27;;;;;;;;;;5027264;28;20013;-76
2022/03/12 08:45:32;;;;;;;20.10;13.48;;;;;;;;;;5024010;28;20033;-76
2022/03/12 08:47:59;;;;;;;11.75;7.85;;;;;;;;;;5026024;28;20411;-76
2022/03/12 08:50:26;;;;;;;12.48;8.65;;;;;;;;;;5023456;28;20519;-77
2022/03/12 08:52:52;;;;;;;15.57;10.30;;;;;;;;;;5023025;28;20137;-76
2022/03/12 08:55:19;;;;;;;14.82;7.65;;;;;;;;;;5026903;28;20501;-76
2022/03/12 08:57:45;;;;;;;9.30;6.80;;;;;;;;;;5028378;28;20079;-75
2022/03/12 09:00:12;;;;;;;9.73;6.13;;;;;;;;;;5029121;28;20026;-76
2022/03/12 09:02:40;;;;;;;13.70;7.53;;;;;;;;;;5027293;28;20128;-77
2022/03/12 09:05:08;;;;;;;13.15;6.72;;;;;;;;;;5027775;28;20037;-76
2022/03/12 09:07:35;;;;;;;12.18;7.18;;;;;;;;;;5027692;28;20124;-75
2022/03/12 09:10:05;;;;;;;8.68;5.13;;;;;;;;;;5028191;28;20460;-76
2022/03/12 09:12:31;;;;;;;11.15;6.97;;;;;;;;;;5027546;28;20033;-76
2022/03/12 09:14:58;;;;;;;13.65;6.38;;;;;;;;;;5026494;28;20480;-77
2022/03/12 09:17:24;;;;;;;11.60;6.45;;;;;;;;;;5032818;28;20389;-75
2022/03/12 09:19:51;;;;;;;9.45;6.35;;;;;;;;;;5031850;28;20022;-75
2022/03/12 09:22:17;;;;;;;8.68;5.55;;;;;;;;;;5032956;28;20025;-75
2022/03/12 09:24:43;;;;;;;11.40;6.97;;;;;;;;;;5031039;28;20494;-75
2022/03/12 09:27:10;;;;;;;13.38;9.65;;;;;;;;;;5032730;28;20034;-76
2022/03/12 09:29:36;;;;;;;15.85;9.80;;;;;;;;;;5029757;28;20113;-78
2022/03/12 09:32:06;;;;;;;15.35;8.88;;;;;;;;;;5032061;28;20029;-75
2022/03/12 09:34:34;;;;;;;12.75;8.50;;;;;;;;;;5029302;28;20025;-76
2022/03/12 09:37:01;;;;;;;12.45;8.18;;;;;;;;;;5024792;28;20033;-76
2022/03/12 09:39:27;;;;;;;10.95;8.48;;;;;;;;;;5032504;28;20060;-76
2022/03/12 09:41:53;;;;;;;14.80;7.18;;;;;;;;;;5029563;28;20519;-75
2022/03/12 09:44:19;;;;;;;11.45;8.15;;;;;;;;;;5028905;28;20064;-76
2022/03/12 09:46:46;;;;;;;15.40;8.52;;;;;;;;;;5017730;28;20021;-76
2022/03/12 09:49:12;;;;;;;14.30;8.18;;;;;;;;;;5020054;28;20543;-75
2022/03/12 09:51:39;;;;;;;14.82;8.85;;;;;;;;;;5029062;28;20037;-75
2022/03/12 09:54:05;;;;;;;19.70;10.30;;;;;;;;;;5029158;28;20491;-75
2022/03/12 09:56:31;;;;;;;15.13;9.25;;;;;;;;;;5029967;28;20033;-76
2022/03/12 09:58:58;;;;;;;17.95;7.82;;;;;;;;;;5028549;28;20057;-76
2022/03/12 10:01:24;;;;;;;12.25;7.20;;;;;;;;;;5030399;28;20033;-76
2022/03/12 10:03:50;;;;;;;12.18;7.93;;;;;;;;;;5011107;28;20239;-76
2022/03/12 10:06:17;;;;;;;13.48;8.45;;;;;;;;;;5011498;28;20030;-75
2022/03/12 10:08:44;;;;;;;17.50;9.00;;;;;;;;;;5029532;28;20067;-76
2022/03/12 10:11:11;;;;;;;19.38;10.18;;;;;;;;;;5029187;28;20018;-77
2022/03/12 10:13:37;;;;;;;14.90;9.52;;;;;;;;;;5026574;28;20029;-75
2022/03/12 10:16:04;;;;;;;18.73;11.27;;;;;;;;;;5027308;28;20540;-76
2022/03/12 10:18:31;;;;;;;16.58;9.02;;;;;;;;;;5026741;28;20025;-77
2022/03/12 10:20:57;;;;;;;21.55;10.23;;;;;;;;;;5021734;28;20026;-80
2022/03/12 10:23:24;;;;;;;19.40;8.77;;;;;;;;;;5025581;28;20029;-76
2022/03/12 10:25:51;;;;;;;16.08;8.73;;;;;;;;;;5026757;28;20236;-76
2022/03/12 10:28:18;;;;;;;11.85;7.75;;;;;;;;;;5028952;28;20026;-75
2022/03/12 10:30:44;;;;;;;11.52;7.88;;;;;;;;;;5031456;28;20037;-77
2022/03/12 10:33:14;;;;;;;16.25;8.10;;;;;;;;;;5030124;28;20051;-74
2022/03/12 10:35:41;;;;;;;11.90;8.13;;;;;;;;;;5034129;28;20037;-75
2022/03/12 10:38:11;;;;;;;13.68;7.80;;;;;;;;;;5027661;28;20039;-75
2022/03/12 10:40:37;;;;;;;13.43;7.97;;;;;;;;;;5030247;28;20033;-75
2022/03/12 10:43:06;;;;;;;12.10;7.38;;;;;;;;;;5012396;28;20083;-76
2022/03/12 10:45:43;;;;;;;13.13;7.65;;;;;;;;;;5030872;28;20033;-75
2022/03/12 10:48:12;;;;;;;12.48;7.78;;;;;;;;;;5030753;28;20475;-75
2022/03/12 10:50:50;;;;;;;15.10;8.57;;;;;;;;;;5027210;28;20511;-77
2022/03/12 10:53:17;;;;;;;14.07;8.10;;;;;;;;;;5032092;28;20124;-76
2022/03/12 10:55:50;;;;;;;14.30;7.68;;;;;;;;;;5030381;28;20060;-77
2022/03/12 10:58:21;;;;;;;9.57;7.25;;;;;;;;;;5032761;28;20017;-75
2022/03/12 11:00:48;;;;;;;12.05;8.30;;;;;;;;;;5033621;28;20031;-76
2022/03/12 11:03:17;;;;;;;12.82;7.45;;;;;;;;;;5034281;28;20021;-75
2022/03/12 11:05:44;;;;;;;8.38;6.15;;;;;;;;;;5032013;28;20471;-76
2022/03/12 11:08:16;;;;;;;12.98;7.88;;;;;;;;;;5034141;28;20056;-75
2022/03/12 11:10:44;;;;;;;12.82;7.38;;;;;;;;;;5031490;28;20026;-76
2022/03/12 11:13:12;;;;;;;9.30;5.57;;;;;;;;;;5030276;28;20109;-77
2022/03/12 11:15:40;;;;;;;12.02;5.72;;;;;;;;;;5032132;28;20029;-75
2022/03/12 11:18:07;;;;;;;8.63;6.05;;;;;;;;;;5030996;28;20108;-77
2022/03/12 11:20:36;;;;;;;12.40;6.60;;;;;;;;;;5033277;28;20025;-76
2022/03/12 11:23:16;;;;;;;10.70;6.75;;;;;;;;;;5028276;28;20053;-76
2022/03/12 11:25:58;;;;;;;12.13;6.55;;;;;;;;;;5031331;28;20085;-76
2022/03/12 11:28:25;;;;;;;8.65;4.72;;;;;;;;;;5029229;28;20017;-77
2022/03/12 11:30:51;;;;;;;10.20;5.35;;;;;;;;;;5033401;28;20033;-77
2022/03/12 11:33:18;;;;;;;11.43;6.05;;;;;;;;;;5028527;28;20029;-76
2022/03/12 11:35:46;;;;;;;12.35;6.85;;;;;;;;;;5028399;28;20025;-76
2022/03/12 11:38:17;;;;;;;11.40;7.25;;;;;;;;;;5030997;28;20104;-77
2022/03/12 11:40:45;;;;;;;11.68;5.90;;;;;;;;;;5027304;28;20379;-76
2022/03/12 11:43:24;;;;;;;15.90;6.47;;;;;;;;;;5027123;28;20064;-77
2022/03/12 11:45:55;;;;;;;15.68;5.82;;;;;;;;;;5022921;28;20543;-77
2022/03/12 11:48:23;;;;;;;13.68;6.03;;;;;;;;;;5027698;28;20068;-76
2022/03/12 11:50:49;;;;;;;17.55;6.53;;;;;;;;;;5022965;28;20108;-76
2022/03/12 11:53:17;;;;;;;24.05;8.07;;;;;;;;;;5026278;28;20472;-78
2022/03/12 11:55:47;;;;;;;23.58;7.45;;;;;;;;;;5028543;28;20029;-77
2022/03/12 11:58:14;;;;;;;22.77;7.20;;;;;;;;;;5030386;28;20025;-77
2022/03/12 12:00:40;;;;;;;26.15;8.98;;;;;;;;;;5025570;28;20471;-77
2022/03/12 12:03:07;;;;;;;27.30;9.00;;;;;;;;;;5025433;28;20550;-77
2022/03/12 12:05:34;;;;;;;24.08;7.63;;;;;;;;;;5030188;28;20072;-75
2022/03/12 12:08:01;;;;;;;28.20;6.65;;;;;;;;;;5027391;28;20048;-75
2022/03/12 12:10:29;;;;;;;22.38;6.75;;;;;;;;;;5011392;28;20037;-75
2022/03/12 12:12:57;;;;;;;21.85;8.18;;;;;;;;;;5012594;28;20152;-76
2022/03/12 12:15:29;;;;;;;22.25;8.55;;;;;;;;;;5029308;28;20030;-75
2022/03/12 12:17:56;;;;;;;20.98;13.00;;;;;;;;;;5023845;28;20499;-76
2022/03/12 12:20:23;;;;;;;25.52;12.00;;;;;;;;;;5027625;28;20029;-76
2022/03/12 12:22:50;;;;;;;21.83;13.77;;;;;;;;;;5028350;28;20017;-78
2022/03/12 12:25:19;;;;;;;22.30;14.63;;;;;;;;;;5028847;28;20041;-76
2022/03/12 12:27:46;;;;;;;21.17;14.13;;;;;;;;;;5030619;28;20381;-76
2022/03/12 12:30:18;;;;;;;21.13;14.98;;;;;;;;;;5030173;28;20056;-79
2022/03/12 12:32:48;;;;;;;24.75;18.13;;;;;;;;;;5029438;28;20068;-76
2022/03/12 12:35:16;;;;;;;27.30;19.42;;;;;;;;;;5029627;28;20491;-76
2022/03/12 12:37:54;;;;;;;23.02;18.30;;;;;;;;;;5032401;28;20029;-77
2022/03/12 12:40:24;;;;;;;28.15;19.75;;;;;;;;;;5023452;28;20021;-76
2022/03/12 12:42:52;;;;;;;24.73;15.85;;;;;;;;;;5031047;28;20029;-77
2022/03/12 12:45:22;;;;;;;30.58;20.48;;;;;;;;;;5030636;28;20083;-77
2022/03/12 12:47:57;;;;;;;26.00;17.52;;;;;;;;;;5028646;28;20025;-76
2022/03/12 12:50:25;;;;;;;31.58;19.70;;;;;;;;;;5027071;28;20099;-75
2022/03/12 12:53:09;;;;;;;29.30;19.45;;;;;;;;;;5031907;28;20060;-76
2022/03/12 12:55:35;;;;;;;30.00;20.35;;;;;;;;;;5035818;28;20040;-76
2022/03/12 12:58:02;;;;;;;29.13;19.58;;;;;;;;;;5038374;28;20506;-75
2022/03/12 13:00:30;;;;;;;36.95;22.83;;;;;;;;;;5028431;28;20026;-76
2022/03/12 13:02:58;;;;;;;29.30;21.25;;;;;;;;;;5024402;28;20031;-76
2022/03/12 13:05:43;;;;;;;29.08;18.02;;;;;;;;;;5020469;28;20063;-76
2022/03/12 13:08:10;;;;;;;30.00;17.92;;;;;;;;;;5027629;28;20040;-76
2022/03/12 13:10:36;;;;;;;26.23;17.60;;;;;;;;;;5028581;28;20036;-76
2022/03/12 13:13:10;;;;;;;27.20;17.08;;;;;;;;;;5022671;28;20112;-76
2022/03/12 13:15:37;;;;;;;25.63;18.10;;;;;;;;;;5026820;28;20056;-76
2022/03/12 13:18:30;;;;;;;26.75;17.80;;;;;;;;;;5028111;28;20044;-74
2022/03/12 13:20:56;;;;;;;24.20;16.00;;;;;;;;;;5028518;28;20022;-76
2022/03/12 13:23:26;;;;;;;31.08;17.65;;;;;;;;;;5027832;28;20021;-76
2022/03/12 13:25:57;;;;;;;30.45;17.17;;;;;;;;;;5027997;28;20035;-76
2022/03/12 13:28:51;;;;;;;29.10;17.85;;;;;;;;;;5026437;28;20462;-77
2022/03/12 13:31:20;;;;;;;34.92;19.63;;;;;;;;;;5022286;28;20033;-76
2022/03/12 13:33:50;;;;;;;24.33;15.07;;;;;;;;;;5026698;28;20036;-75
2022/03/12 13:36:23;;;;;;;25.50;15.93;;;;;;;;;;5025864;28;20518;-75
2022/03/12 13:38:51;;;;;;;28.40;17.67;;;;;;;;;;5027993;28;20479;-76
2022/03/12 13:41:18;;;;;;;25.13;16.23;;;;;;;;;;5029248;28;20029;-77
2022/03/12 13:43:45;;;;;;;27.40;15.48;;;;;;;;;;5026554;28;20017;-76
2022/03/12 13:46:12;;;;;;;23.23;14.98;;;;;;;;;;5028713;28;20033;-77
2022/03/12 13:48:40;;;;;;;27.23;17.38;;;;;;;;;;5028352;28;20018;-76
2022/03/12 13:51:06;;;;;;;31.35;21.95;;;;;;;;;;5026553;28;20183;-75
2022/03/12 13:53:33;;;;;;;40.05;27.02;;;;;;;;;;5026778;28;20022;-76
2022/03/12 13:56:06;;;;;;;38.45;27.48;;;;;;;;;;5027558;28;20033;-76
2022/03/12 13:58:33;;;;;;;53.90;33.20;;;;;;;;;;5028372;28;20044;-75
2022/03/12 14:00:59;;;;;;;51.40;31.73;;;;;;;;;;5029942;28;20038;-76
2022/03/12 14:03:29;;;;;;;65.95;42.28;;;;;;;;;;5033663;28;20030;-76
2022/03/12 14:05:59;;;;;;;66.50;41.20;;;;;;;;;;5034874;28;20373;-76
2022/03/12 14:08:29;;;;;;;70.43;43.38;;;;;;;;;;5033493;28;20472;-76
2022/03/12 14:10:55;;;;;;;92.25;57.25;;;;;;;;;;5038653;28;20089;-76
2022/03/12 14:13:22;;;;;;;101.55;69.70;;;;;;;;;;5039396;28;20061;-76
2022/03/12 14:15:49;;;;;;;106.18;65.78;;;;;;;;;;5040139;28;20026;-76
2022/03/12 14:18:26;;;;;;;97.45;63.67;;;;;;;;;;5039755;28;20025;-76
2022/03/12 14:20:53;;;;;;;108.40;66.82;;;;;;;;;;5038934;28;20124;-76
2022/03/12 14:23:20;;;;;;;106.40;65.38;;;;;;;;;;5038858;28;20033;-77
2022/03/12 14:25:48;;;;;;;95.93;60.97;;;;;;;;;;5039086;28;20108;-75
2022/03/12 14:28:14;;;;;;;75.00;50.55;;;;;;;;;;5038392;28;20028;-76